createdAt,value
2018-05-07T00:01:47.402Z,13.60
2018-05-07T00:04:16.422Z,13.60
2018-05-07T00:06:44.727Z,13.60
2018-05-07T00:09:13.041Z,13.60
2018-05-07T00:11:41.328Z,13.60
2018-05-07T00:14:09.541Z,13.60
2018-05-07T00:16:37.885Z,13.60
2018-05-07T00:19:06.862Z,13.50
2018-05-07T00:21:36.819Z,13.50
2018-05-07T00:24:05.106Z,13.50
2018-05-07T00:26:33.488Z,13.50
2018-05-07T00:29:01.654Z,13.50
2018-05-07T00:31:29.931Z,13.50
2018-05-07T00:33:58.216Z,13.50
2018-05-07T00:36:26.463Z,13.50
2018-05-07T00:38:55.512Z,13.40
2018-05-07T00:41:23.817Z,13.40
2018-05-07T00:43:52.851Z,13.40
2018-05-07T00:46:21.126Z,13.40
2018-05-07T00:48:49.364Z,13.40
2018-05-07T00:51:18.462Z,13.30
2018-05-07T00:53:46.723Z,13.30
2018-05-07T00:56:15.734Z,13.30
2018-05-07T00:58:44.750Z,13.30
2018-05-07T01:01:13.063Z,13.30
2018-05-07T01:03:41.379Z,13.30
2018-05-07T01:06:10.408Z,13.20
2018-05-07T01:08:38.688Z,13.20
2018-05-07T01:11:07.025Z,13.20
2018-05-07T01:13:35.344Z,13.20
2018-05-07T01:16:03.601Z,13.10
2018-05-07T01:18:31.822Z,13.10
2018-05-07T01:21:00.215Z,13.10
2018-05-07T01:23:28.439Z,13.10
2018-05-07T01:25:56.732Z,13.10
2018-05-07T01:28:25.609Z,13.10
2018-05-07T01:30:54.645Z,13.10
2018-05-07T01:33:22.950Z,13.10
2018-05-07T01:35:51.248Z,13.10
2018-05-07T01:38:19.524Z,13.10
2018-05-07T01:40:48.400Z,13.00
2018-05-07T01:43:17.142Z,13.00
2018-05-07T01:45:46.189Z,13.00
2018-05-07T01:48:14.482Z,13.00
2018-05-07T01:50:42.745Z,13.00
2018-05-07T01:53:11.020Z,13.00
2018-05-07T01:55:39.293Z,12.90
2018-05-07T01:58:07.585Z,12.90
2018-05-07T02:00:35.861Z,12.90
2018-05-07T02:03:04.103Z,12.90
2018-05-07T02:05:32.388Z,12.90
2018-05-07T02:08:00.664Z,12.90
2018-05-07T02:10:28.933Z,12.80
2018-05-07T02:12:57.236Z,12.80
2018-05-07T02:15:25.537Z,12.80
2018-05-07T02:17:53.911Z,12.80
2018-05-07T02:20:22.188Z,12.80
2018-05-07T02:22:50.455Z,12.80
2018-05-07T02:25:18.719Z,12.70
2018-05-07T02:27:46.974Z,12.70
2018-05-07T02:30:15.768Z,12.70
2018-05-07T02:32:44.069Z,12.70
2018-05-07T02:35:13.150Z,12.70
2018-05-07T02:37:41.390Z,12.70
2018-05-07T02:40:10.400Z,12.70
2018-05-07T02:42:38.650Z,12.60
2018-05-07T02:45:07.670Z,12.60
2018-05-07T02:47:36.968Z,12.60
2018-05-07T02:50:05.975Z,12.60
2018-05-07T02:52:34.225Z,12.60
2018-05-07T02:55:02.529Z,12.60
2018-05-07T02:57:30.795Z,12.60
2018-05-07T02:59:59.076Z,12.60
2018-05-07T03:02:27.342Z,12.60
2018-05-07T03:04:55.623Z,12.60
2018-05-07T03:07:23.856Z,12.60
2018-05-07T03:09:52.120Z,12.60
2018-05-07T03:12:20.505Z,12.60
2018-05-07T03:14:48.775Z,12.50
2018-05-07T03:17:17.051Z,12.50
2018-05-07T03:19:45.280Z,12.50
2018-05-07T03:22:13.561Z,12.50
2018-05-07T03:24:41.914Z,12.40
2018-05-07T03:27:10.096Z,12.40
2018-05-07T03:29:38.355Z,12.40
2018-05-07T03:32:07.383Z,12.30
2018-05-07T03:34:35.656Z,12.30
2018-05-07T03:37:03.907Z,12.30
2018-05-07T03:39:32.935Z,12.30
2018-05-07T03:42:01.198Z,12.30
2018-05-07T03:44:29.487Z,12.30
2018-05-07T03:46:57.733Z,12.30
2018-05-07T03:49:26.788Z,12.30
2018-05-07T03:51:55.054Z,12.20
2018-05-07T03:54:23.270Z,12.20
2018-05-07T03:56:53.437Z,12.20
2018-05-07T03:59:21.655Z,12.20
2018-05-07T04:01:50.676Z,12.20
2018-05-07T04:04:18.941Z,12.20
2018-05-07T04:06:47.191Z,12.20
2018-05-07T04:09:16.716Z,12.20
2018-05-07T04:11:44.933Z,12.30
2018-05-07T04:14:13.189Z,12.20
2018-05-07T04:16:53.324Z,12.30
2018-05-07T04:19:33.525Z,12.30
2018-05-07T04:22:14.197Z,12.30
2018-05-07T04:24:42.755Z,12.30
2018-05-07T04:27:11.028Z,12.30
2018-05-07T04:29:39.320Z,12.40
2018-05-07T04:32:07.811Z,12.40
2018-05-07T04:34:36.014Z,12.40
2018-05-07T04:37:04.331Z,12.50
2018-05-07T04:42:05.094Z,12.60
2018-05-07T04:44:33.345Z,12.70
2018-05-07T04:47:02.377Z,12.80
2018-05-07T04:49:30.686Z,12.80
2018-05-07T04:51:59.020Z,12.90
2018-05-07T04:54:27.290Z,12.90
2018-05-07T04:56:55.581Z,13.00
2018-05-07T04:59:23.819Z,13.10
2018-05-07T05:01:52.103Z,13.60
2018-05-07T05:04:20.433Z,14.80
2018-05-07T05:06:48.761Z,14.80
2018-05-07T05:09:18.247Z,15.50
2018-05-07T05:11:47.277Z,18.20
2018-05-07T05:14:15.575Z,18.20
2018-05-07T05:16:43.843Z,19.40
2018-05-07T05:19:12.232Z,20.50
2018-05-07T05:21:40.484Z,21.30
2018-05-07T05:24:08.728Z,22.30
2018-05-07T05:26:36.967Z,22.90
2018-05-07T05:29:05.269Z,23.60
2018-05-07T05:31:34.346Z,25.70
2018-05-07T05:34:02.583Z,25.60
2018-05-07T05:36:30.901Z,26.50
2018-05-07T05:38:59.152Z,26.90
2018-05-07T05:41:27.404Z,27.10
2018-05-07T05:43:55.700Z,27.70
2018-05-07T05:46:23.976Z,28.40
2018-05-07T05:48:52.218Z,28.70
2018-05-07T05:51:20.513Z,28.70
2018-05-07T05:53:48.773Z,28.00
2018-05-07T05:56:17.079Z,27.40
2018-05-07T05:58:46.090Z,28.90
2018-05-07T06:01:14.440Z,28.90
2018-05-07T06:03:42.769Z,29.40
2018-05-07T06:06:11.019Z,29.70
2018-05-07T06:08:39.295Z,29.90
2018-05-07T06:11:07.571Z,29.10
2018-05-07T06:13:35.839Z,29.40
2018-05-07T06:16:04.148Z,30.50
2018-05-07T06:18:33.175Z,31.30
2018-05-07T06:21:01.440Z,31.30
2018-05-07T06:23:30.464Z,31.90
2018-05-07T06:25:58.696Z,32.00
2018-05-07T06:28:27.737Z,32.40
2018-05-07T06:30:57.252Z,32.30
2018-05-07T06:33:25.512Z,32.30
2018-05-07T06:35:53.776Z,32.40
2018-05-07T06:38:22.029Z,32.40
2018-05-07T06:40:50.392Z,32.30
2018-05-07T06:43:19.439Z,32.80
2018-05-07T06:45:47.808Z,32.70
2018-05-07T06:48:15.976Z,32.50
2018-05-07T06:50:44.220Z,32.50
2018-05-07T06:53:12.542Z,33.00
2018-05-07T06:55:40.819Z,33.40
2018-05-07T06:58:09.096Z,33.10
2018-05-07T07:00:37.479Z,33.30
2018-05-07T07:03:05.774Z,33.40
2018-05-07T07:05:35.178Z,34.00
2018-05-07T07:08:03.471Z,33.30
2018-05-07T07:10:31.747Z,33.20
2018-05-07T07:12:59.993Z,33.80
2018-05-07T07:15:28.269Z,34.00
2018-05-07T07:17:56.640Z,34.00
2018-05-07T07:20:24.876Z,33.60
2018-05-07T07:22:53.144Z,34.10
2018-05-07T07:25:21.424Z,34.00
2018-05-07T07:27:49.705Z,34.50
2018-05-07T07:30:17.993Z,34.70
2018-05-07T07:32:46.266Z,33.60
2018-05-07T07:35:14.542Z,33.80
2018-05-07T07:37:42.837Z,34.00
2018-05-07T07:40:11.124Z,33.80
2018-05-07T07:42:39.371Z,32.70
2018-05-07T07:45:07.663Z,32.40
2018-05-07T07:47:35.935Z,31.50
2018-05-07T07:50:04.323Z,29.90
2018-05-07T07:52:32.596Z,27.80
2018-05-07T07:55:00.816Z,26.10
2018-05-07T07:57:29.871Z,24.10
2018-05-07T07:59:58.147Z,24.10
2018-05-07T08:02:26.408Z,23.70
2018-05-07T08:04:54.667Z,23.10
2018-05-07T08:07:22.939Z,22.60
2018-05-07T08:09:51.234Z,22.10
2018-05-07T08:12:19.630Z,21.80
2018-05-07T08:14:47.765Z,21.80
2018-05-07T08:17:16.053Z,21.80
2018-05-07T08:19:44.340Z,21.80
2018-05-07T08:22:12.583Z,22.00
2018-05-07T08:27:13.327Z,21.90
2018-05-07T08:29:42.366Z,21.90
2018-05-07T08:32:10.622Z,21.90
2018-05-07T08:34:38.898Z,22.10
2018-05-07T08:37:07.215Z,22.20
2018-05-07T08:39:35.514Z,22.20
2018-05-07T08:42:04.283Z,22.20
2018-05-07T08:44:32.576Z,22.00
2018-05-07T08:47:01.650Z,21.90
2018-05-07T08:49:29.897Z,21.90
2018-05-07T08:51:58.184Z,21.90
2018-05-07T08:54:26.441Z,22.00
2018-05-07T08:56:54.725Z,22.10
2018-05-07T08:59:23.859Z,22.20
2018-05-07T09:01:52.094Z,22.40
2018-05-07T09:04:21.646Z,22.50
2018-05-07T09:06:49.888Z,22.50
2018-05-07T09:09:18.259Z,22.50
2018-05-07T09:11:46.533Z,22.40
2018-05-07T09:14:14.828Z,22.30
2018-05-07T09:16:43.103Z,22.10
2018-05-07T09:19:11.376Z,21.90
2018-05-07T09:21:39.784Z,22.10
2018-05-07T09:24:08.077Z,22.30
2018-05-07T09:26:37.157Z,22.80
2018-05-07T09:29:05.430Z,22.80
2018-05-07T09:31:33.768Z,23.00
2018-05-07T09:34:02.420Z,22.90
2018-05-07T09:36:30.665Z,22.90
2018-05-07T09:38:58.948Z,23.00
2018-05-07T09:41:28.014Z,23.20
2018-05-07T09:43:56.285Z,23.20
2018-05-07T09:46:24.568Z,23.00
2018-05-07T09:48:52.851Z,22.90
2018-05-07T09:51:21.117Z,22.80
2018-05-07T09:53:49.441Z,22.90
2018-05-07T09:56:18.449Z,23.30
2018-05-07T10:01:30.015Z,23.30
2018-05-07T10:03:58.405Z,23.30
2018-05-07T10:06:27.473Z,23.40
2018-05-07T10:08:55.764Z,23.40
2018-05-07T10:11:24.027Z,23.50
2018-05-07T10:13:52.289Z,23.80
2018-05-07T10:16:20.596Z,23.90
2018-05-07T10:18:48.881Z,24.00
2018-05-07T10:21:17.937Z,24.10
2018-05-07T10:23:47.075Z,24.20
2018-05-07T10:26:15.312Z,24.20
2018-05-07T10:28:43.585Z,24.10
2018-05-07T10:31:11.856Z,23.80
2018-05-07T10:33:40.128Z,23.70
2018-05-07T10:36:08.393Z,23.70
2018-05-07T10:38:36.728Z,23.80
2018-05-07T10:41:06.613Z,23.90
2018-05-07T10:43:34.898Z,23.90
2018-05-07T10:46:03.252Z,24.20
2018-05-07T10:48:31.527Z,24.20
2018-05-07T10:50:59.788Z,24.30
2018-05-07T10:53:28.067Z,24.10
2018-05-07T10:55:57.253Z,24.10
2018-05-07T10:58:25.499Z,23.90
2018-05-07T11:00:54.645Z,24.10
2018-05-07T11:03:22.904Z,24.20
2018-05-07T11:05:52.450Z,24.20
2018-05-07T11:08:20.708Z,24.30
2018-05-07T11:10:48.994Z,24.50
2018-05-07T11:13:17.302Z,24.60
2018-05-07T11:15:45.597Z,24.70
2018-05-07T11:18:13.869Z,24.70
2018-05-07T11:20:42.877Z,24.50
2018-05-07T11:23:12.323Z,24.50
2018-05-07T11:25:40.835Z,24.60
2018-05-07T11:28:09.085Z,24.60
2018-05-07T11:30:37.352Z,24.60
2018-05-07T11:33:05.630Z,24.40
2018-05-07T11:35:33.914Z,24.30
2018-05-07T11:38:02.958Z,24.60
2018-05-07T11:40:31.251Z,24.60
2018-05-07T11:42:59.516Z,24.60
2018-05-07T11:45:27.809Z,24.70
2018-05-07T11:47:56.108Z,24.50
2018-05-07T11:50:24.352Z,24.20
2018-05-07T11:52:52.638Z,24.30
2018-05-07T11:55:20.905Z,24.30
2018-05-07T11:57:49.318Z,24.30
2018-05-07T12:00:17.572Z,24.50
2018-05-07T12:02:46.647Z,24.80
2018-05-07T12:05:14.932Z,24.80
2018-05-07T12:07:43.177Z,24.60
2018-05-07T12:10:11.457Z,24.70
2018-05-07T12:12:40.637Z,24.80
2018-05-07T12:15:09.715Z,24.80
2018-05-07T12:17:38.715Z,24.80
2018-05-07T12:20:06.980Z,24.90
2018-05-07T12:22:35.321Z,25.00
2018-05-07T12:25:03.617Z,25.00
2018-05-07T12:27:31.884Z,24.90
2018-05-07T12:30:00.130Z,24.80
2018-05-07T12:32:28.428Z,24.80
2018-05-07T12:34:56.708Z,24.70
2018-05-07T12:37:25.116Z,24.60
2018-05-07T12:39:53.392Z,24.70
2018-05-07T12:42:21.634Z,24.90
2018-05-07T12:47:22.360Z,25.00
2018-05-07T12:49:50.697Z,25.00
2018-05-07T12:52:20.228Z,25.10
2018-05-07T12:54:49.405Z,25.20
2018-05-07T12:57:17.708Z,25.30
2018-05-07T12:59:46.745Z,25.20
2018-05-07T13:02:15.114Z,25.20
2018-05-07T13:04:43.356Z,25.30
2018-05-07T13:07:11.627Z,25.20
2018-05-07T13:09:40.649Z,25.40
2018-05-07T13:12:08.959Z,25.40
2018-05-07T13:14:37.293Z,25.50
2018-05-07T13:17:05.636Z,25.40
2018-05-07T13:19:33.844Z,25.10
2018-05-07T13:22:02.089Z,25.10
2018-05-07T13:24:31.166Z,24.90
2018-05-07T13:26:59.450Z,24.80
2018-05-07T13:29:27.752Z,24.90
2018-05-07T13:31:56.803Z,25.10
2018-05-07T13:34:25.083Z,25.00
2018-05-07T13:36:53.461Z,25.10
2018-05-07T13:39:21.645Z,25.20
2018-05-07T13:41:49.933Z,25.20
2018-05-07T13:44:18.982Z,25.40
2018-05-07T13:46:47.255Z,25.40
2018-05-07T13:49:15.520Z,25.50
2018-05-07T13:51:43.814Z,25.60
2018-05-07T13:54:14.458Z,25.60
2018-05-07T13:56:42.708Z,25.70
2018-05-07T13:59:12.062Z,25.70
2018-05-07T14:01:40.308Z,25.60
2018-05-07T14:04:08.576Z,25.60
2018-05-07T14:06:36.855Z,25.70
2018-05-07T14:09:06.011Z,25.60
2018-05-07T14:11:34.292Z,25.70
2018-05-07T14:14:02.550Z,25.70
2018-05-07T14:16:31.583Z,25.80
2018-05-07T14:18:59.860Z,25.80
2018-05-07T14:21:28.135Z,25.60
2018-05-07T14:23:56.421Z,25.50
2018-05-07T14:26:24.799Z,25.40
2018-05-07T14:28:53.047Z,25.40
2018-05-07T14:31:22.616Z,25.40
2018-05-07T14:33:52.233Z,25.60
2018-05-07T14:36:20.529Z,25.60
2018-05-07T14:38:49.573Z,25.60
2018-05-07T14:41:17.812Z,25.60
2018-05-07T14:43:46.090Z,25.70
2018-05-07T14:46:15.385Z,25.70
2018-05-07T14:48:43.646Z,25.70
2018-05-07T14:51:13.391Z,25.80
2018-05-07T14:53:41.718Z,25.70
2018-05-07T14:58:44.020Z,25.50
2018-05-07T15:01:13.187Z,25.50
2018-05-07T15:03:41.429Z,25.40
2018-05-07T15:06:09.702Z,25.60
2018-05-07T15:08:37.982Z,25.40
2018-05-07T15:11:06.239Z,25.50
2018-05-07T15:13:34.610Z,25.60
2018-05-07T15:16:02.829Z,25.60
2018-05-07T15:18:31.074Z,25.60
2018-05-07T15:20:59.356Z,25.70
2018-05-07T15:23:27.716Z,25.70
2018-05-07T15:25:55.887Z,25.70
2018-05-07T15:28:24.936Z,25.60
2018-05-07T15:30:53.313Z,25.60
2018-05-07T15:33:21.587Z,25.60
2018-05-07T15:35:49.838Z,25.60
2018-05-07T15:38:19.036Z,25.60
2018-05-07T15:40:47.296Z,25.70
2018-05-07T15:43:15.613Z,25.60
2018-05-07T15:45:43.857Z,25.60
2018-05-07T15:48:12.172Z,25.40
2018-05-07T15:50:41.916Z,25.50
2018-05-07T15:53:10.808Z,25.50
2018-05-07T15:55:39.095Z,25.60
2018-05-07T15:58:07.332Z,25.60
2018-05-07T16:00:35.612Z,25.60
2018-05-07T16:03:04.002Z,25.60
2018-05-07T16:05:32.160Z,25.60
2018-05-07T16:08:02.038Z,25.60
2018-05-07T16:10:30.305Z,25.60
2018-05-07T16:12:58.557Z,25.50
2018-05-07T16:15:26.888Z,25.60
2018-05-07T16:17:55.274Z,25.40
2018-05-07T16:20:25.045Z,25.30
2018-05-07T16:22:53.324Z,25.30
2018-05-07T16:25:22.383Z,25.30
2018-05-07T16:27:50.617Z,25.20
2018-05-07T16:30:18.906Z,25.20
2018-05-07T16:32:47.179Z,25.10
2018-05-07T16:35:15.459Z,25.00
2018-05-07T16:37:43.833Z,25.00
2018-05-07T16:40:12.040Z,25.00
2018-05-07T16:42:41.105Z,25.00
2018-05-07T16:45:09.347Z,25.00
2018-05-07T16:47:37.649Z,25.00
2018-05-07T16:50:06.040Z,24.90
2018-05-07T16:52:34.274Z,24.90
2018-05-07T16:55:02.557Z,24.80
2018-05-07T16:57:30.803Z,24.80
2018-05-07T16:59:59.103Z,24.80
2018-05-07T17:02:27.375Z,24.80
2018-05-07T17:04:55.698Z,24.70
2018-05-07T17:07:23.973Z,24.50
2018-05-07T17:09:52.235Z,24.40
2018-05-07T17:12:20.532Z,24.10
2018-05-07T17:14:48.902Z,24.00
2018-05-07T17:17:17.148Z,23.90
2018-05-07T17:19:45.426Z,23.70
2018-05-07T17:22:13.777Z,23.60
2018-05-07T17:24:42.041Z,23.50
2018-05-07T17:27:11.058Z,23.20
2018-05-07T17:29:39.321Z,23.20
2018-05-07T17:32:07.608Z,23.20
2018-05-07T17:34:35.862Z,23.10
2018-05-07T17:37:04.900Z,22.90
2018-05-07T17:39:33.200Z,22.80
2018-05-07T17:42:01.502Z,22.80
2018-05-07T17:44:41.953Z,22.80
2018-05-07T17:47:21.956Z,22.70
2018-05-07T17:49:50.238Z,22.60
2018-05-07T17:52:18.537Z,22.60
2018-05-07T17:54:46.793Z,22.50
2018-05-07T17:57:15.207Z,22.40
2018-05-07T17:59:44.268Z,22.40
2018-05-07T18:02:12.529Z,22.40
2018-05-07T18:04:40.808Z,22.30
2018-05-07T18:07:09.155Z,22.20
2018-05-07T18:09:37.396Z,22.10
2018-05-07T18:12:05.678Z,22.00
2018-05-07T18:14:34.740Z,21.80
2018-05-07T18:17:04.252Z,21.70
2018-05-07T18:19:32.499Z,21.70
2018-05-07T18:22:00.780Z,21.60
2018-05-07T18:24:29.073Z,21.60
2018-05-07T18:26:57.383Z,21.50
2018-05-07T18:29:25.694Z,21.40
2018-05-07T18:31:54.712Z,21.10
2018-05-07T18:34:23.005Z,21.10
2018-05-07T18:36:51.273Z,21.10
2018-05-07T18:39:19.553Z,20.90
2018-05-07T18:41:47.855Z,20.80
2018-05-07T18:44:16.131Z,20.70
2018-05-07T18:46:44.412Z,20.60
2018-05-07T18:49:12.732Z,20.50
2018-05-07T18:51:40.997Z,20.40
2018-05-07T18:54:09.303Z,20.40
2018-05-07T18:56:37.607Z,20.30
2018-05-07T18:59:05.861Z,20.20
2018-05-07T19:01:34.895Z,20.00
2018-05-07T19:04:03.964Z,19.90
2018-05-07T19:06:32.363Z,19.90
2018-05-07T19:09:01.949Z,19.70
2018-05-07T19:11:30.254Z,19.70
2018-05-07T19:13:59.445Z,19.60
2018-05-07T19:16:27.737Z,19.60
2018-05-07T19:18:56.817Z,19.40
2018-05-07T19:21:25.090Z,19.40
2018-05-07T19:23:53.347Z,19.40
2018-05-07T19:26:22.477Z,19.30
2018-05-07T19:28:51.572Z,19.20
2018-05-07T19:31:20.638Z,19.10
2018-05-07T19:33:48.909Z,19.10
2018-05-07T19:36:17.316Z,19.00
2018-05-07T19:38:46.386Z,18.90
2018-05-07T19:41:14.747Z,18.80
2018-05-07T19:43:43.054Z,18.80
2018-05-07T19:46:12.905Z,18.70
2018-05-07T19:48:41.197Z,18.60
2018-05-07T19:51:09.476Z,18.60
2018-05-07T19:53:37.900Z,18.50
2018-05-07T19:56:06.267Z,18.40
2018-05-07T19:58:34.533Z,18.40
2018-05-07T20:01:02.855Z,18.30
2018-05-07T20:03:31.160Z,18.20
2018-05-07T20:05:59.483Z,18.20
2018-05-07T20:08:27.781Z,18.10
2018-05-07T20:10:56.792Z,18.00
2018-05-07T20:13:25.140Z,18.00
2018-05-07T20:15:54.195Z,17.90
2018-05-07T20:18:22.525Z,17.90
2018-05-07T20:20:51.543Z,17.80
2018-05-07T20:23:19.959Z,17.80
2018-05-07T20:25:48.352Z,17.70
2018-05-07T20:28:16.666Z,17.70
2018-05-07T20:30:44.982Z,17.60
2018-05-07T20:33:13.440Z,17.60
2018-05-07T20:35:41.788Z,17.50
2018-05-07T20:38:10.822Z,17.40
2018-05-07T20:40:39.143Z,17.40
2018-05-07T20:43:08.317Z,17.30
2018-05-07T20:45:36.761Z,17.30
2018-05-07T20:48:05.185Z,17.30
2018-05-07T20:50:33.441Z,17.30
2018-05-07T20:53:01.738Z,17.20
2018-05-07T20:55:30.079Z,17.20
2018-05-07T20:57:59.140Z,17.10
2018-05-07T21:00:28.193Z,17.00
2018-05-07T21:02:56.496Z,17.00
2018-05-07T21:05:24.747Z,17.00
2018-05-07T21:07:53.919Z,16.90
2018-05-07T21:10:22.264Z,16.90
2018-05-07T21:12:51.360Z,16.80
2018-05-07T21:15:19.733Z,16.80
2018-05-07T21:17:48.739Z,16.70
2018-05-07T21:20:18.017Z,16.70
2018-05-07T21:22:47.076Z,16.60
2018-05-07T21:25:15.352Z,16.60
2018-05-07T21:27:43.666Z,16.60
2018-05-07T21:30:11.950Z,16.50
2018-05-07T21:32:40.744Z,16.50
2018-05-07T21:35:08.993Z,16.40
2018-05-07T21:37:38.988Z,16.30
2018-05-07T21:40:07.229Z,16.30
2018-05-07T21:42:35.547Z,16.30
2018-05-07T21:45:03.877Z,16.20
2018-05-07T21:47:32.198Z,16.20
2018-05-07T21:52:32.927Z,16.20
2018-05-07T21:55:01.243Z,16.10
2018-05-07T21:57:30.278Z,16.00
2018-05-07T21:59:58.652Z,16.00
2018-05-07T22:02:26.960Z,16.00
2018-05-07T22:04:55.236Z,15.90
2018-05-07T22:07:23.529Z,15.90
2018-05-07T22:09:51.806Z,15.90
2018-05-07T22:12:20.149Z,15.80
2018-05-07T22:14:48.387Z,15.80
2018-05-07T22:17:17.570Z,15.70
2018-05-07T22:19:45.813Z,15.70
2018-05-07T22:22:14.103Z,15.60
2018-05-07T22:24:42.379Z,15.60
2018-05-07T22:27:10.651Z,15.60
2018-05-07T22:29:38.965Z,15.60
2018-05-07T22:32:08.841Z,15.50
2018-05-07T22:34:37.092Z,15.50
2018-05-07T22:37:05.325Z,15.50
2018-05-07T22:39:33.632Z,15.50
2018-05-07T22:42:01.889Z,15.40
2018-05-07T22:44:30.169Z,15.40
2018-05-07T22:46:59.393Z,15.40
2018-05-07T22:49:27.651Z,15.30
2018-05-07T22:51:56.056Z,15.30
2018-05-07T22:54:24.369Z,15.30
2018-05-07T22:56:52.610Z,15.30
2018-05-07T22:59:20.941Z,15.30
2018-05-07T23:01:49.199Z,15.20
2018-05-07T23:06:49.924Z,15.20
2018-05-07T23:09:18.174Z,15.20
2018-05-07T23:11:46.465Z,15.10
2018-05-07T23:14:15.564Z,15.10
2018-05-07T23:16:43.879Z,15.10
2018-05-07T23:19:12.115Z,15.10
2018-05-07T23:21:40.378Z,15.10
2018-05-07T23:24:08.621Z,15.10
2018-05-07T23:26:37.691Z,15.10
2018-05-07T23:29:05.960Z,15.10
2018-05-07T23:31:36.670Z,15.00
2018-05-07T23:34:04.928Z,15.00
2018-05-07T23:36:33.224Z,15.00
2018-05-07T23:39:01.497Z,15.10
2018-05-07T23:41:29.785Z,15.00
2018-05-07T23:43:58.019Z,15.00
2018-05-07T23:46:26.292Z,15.00
2018-05-07T23:48:55.316Z,15.00
2018-05-07T23:51:23.658Z,15.00
2018-05-07T23:53:51.938Z,15.00
2018-05-07T23:56:20.969Z,15.00
2018-05-07T23:58:49.278Z,15.00
